sensor_id;sensor_type;location;lat;lon;timestamp;pressure;altitude;pressure_sealevel;temperature;humidity
16431;BME280;8325;49.284;7.238;2022-07-21T04:03:49;99160.78;;;19.48;81.98
16431;BME280;8325;49.284;7.238;2022-07-21T04:08:02;99157.31;;;19.48;82.61
16431;BME280;8325;49.284;7.238;2022-07-21T04:12:13;99168.28;;;19.51;82.22
16431;BME280;8325;49.284;7.238;2022-07-21T04:16:25;99162.56;;;19.54;81.66
16431;BME280;8325;49.284;7.238;2022-07-21T04:20:38;99167.84;;;19.54;81.45
16431;BME280;8325;49.284;7.238;2022-07-21T04:24:50;99171.91;;;19.57;80.88
16431;BME280;8325;49.284;7.238;2022-07-21T04:29:01;99184.59;;;19.55;80.56
16431;BME280;8325;49.284;7.238;2022-07-21T04:33:13;99194.78;;;19.51;81.56
16431;BME280;8325;49.284;7.238;2022-07-21T04:37:25;99177.44;;;19.55;81.01
16431;BME280;8325;49.284;7.238;2022-07-21T04:41:36;99174.34;;;19.65;80.46
16431;BME280;8325;49.284;7.238;2022-07-21T04:45:48;99172.47;;;19.66;79.89
16431;BME280;8325;49.284;7.238;2022-07-21T04:49:59;99165.88;;;19.75;78.92
16431;BME280;8325;49.284;7.238;2022-07-21T04:54:11;99175.31;;;19.71;78.83
16431;BME280;8325;49.284;7.238;2022-07-21T04:58:25;99180.09;;;19.81;78.74
16431;BME280;8325;49.284;7.238;2022-07-21T05:02:37;99176.13;;;19.90;78.70
16431;BME280;8325;49.284;7.238;2022-07-21T05:06:49;99183.75;;;20.05;77.78
16431;BME280;8325;49.284;7.238;2022-07-21T05:11:00;99179.63;;;20.09;77.30
16431;BME280;8325;49.284;7.238;2022-07-21T05:15:12;99176.53;;;20.30;76.77
16431;BME280;8325;49.284;7.238;2022-07-21T05:19:24;99176.53;;;20.30;77.06
16431;BME280;8325;49.284;7.238;2022-07-21T05:23:35;99179.38;;;20.29;76.83
16431;BME280;8325;49.284;7.238;2022-07-21T05:27:47;99170.69;;;20.40;77.05
16431;BME280;8325;49.284;7.238;2022-07-21T05:31:58;99167.31;;;20.51;76.91
16431;BME280;8325;49.284;7.238;2022-07-21T05:36:10;99163.16;;;21.69;71.95
16431;BME280;8325;49.284;7.238;2022-07-21T05:40:21;99160.91;;;25.42;60.35
16431;BME280;8325;49.284;7.238;2022-07-21T05:44:33;99169.16;;;25.09;62.42
16431;BME280;8325;49.284;7.238;2022-07-21T05:48:44;99172.16;;;23.97;62.81
16431;BME280;8325;49.284;7.238;2022-07-21T05:52:56;99168.06;;;26.90;55.63
16431;BME280;8325;49.284;7.238;2022-07-21T05:57:08;99168.63;;;27.07;54.11
16431;BME280;8325;49.284;7.238;2022-07-21T06:01:19;99180.09;;;26.09;56.10
16431;BME280;8325;49.284;7.238;2022-07-21T06:05:31;99185.28;;;27.24;53.42
16431;BME280;8325;49.284;7.238;2022-07-21T06:09:43;99190.09;;;27.68;52.11
16431;BME280;8325;49.284;7.238;2022-07-21T06:13:54;99191.72;;;27.54;53.42
16431;BME280;8325;49.284;7.238;2022-07-21T06:18:06;99203.03;;;25.94;56.94
16431;BME280;8325;49.284;7.238;2022-07-21T06:22:17;99212.09;;;24.31;62.37
16431;BME280;8325;49.284;7.238;2022-07-21T06:26:30;99216.72;;;23.46;64.95
16431;BME280;8325;49.284;7.238;2022-07-21T06:30:41;99229.19;;;22.71;67.94
16431;BME280;8325;49.284;7.238;2022-07-21T06:34:53;99234.28;;;22.21;69.92
16431;BME280;8325;49.284;7.238;2022-07-21T06:39:05;99225.75;;;22.59;68.83
16431;BME280;8325;49.284;7.238;2022-07-21T06:43:16;99217.94;;;23.55;65.73
16431;BME280;8325;49.284;7.238;2022-07-21T06:47:39;99212.25;;;24.02;63.23
16431;BME280;8325;49.284;7.238;2022-07-21T06:51:51;99223.25;;;23.38;64.77
16431;BME280;8325;49.284;7.238;2022-07-21T06:56:03;99229.78;;;23.02;65.70
16431;BME280;8325;49.284;7.238;2022-07-21T07:00:15;99244.06;;;22.84;66.88
16431;BME280;8325;49.284;7.238;2022-07-21T07:04:27;99244.06;;;22.32;68.31
16431;BME280;8325;49.284;7.238;2022-07-21T07:08:38;99248.97;;;22.23;69.12
16431;BME280;8325;49.284;7.238;2022-07-21T07:13:03;99248.91;;;22.47;68.73
16431;BME280;8325;49.284;7.238;2022-07-21T07:17:34;99256.22;;;22.92;67.28
16431;BME280;8325;49.284;7.238;2022-07-21T07:21:46;99252.31;;;22.83;67.68
16431;BME280;8325;49.284;7.238;2022-07-21T07:25:58;99257.38;;;22.44;69.02
16431;BME280;8325;49.284;7.238;2022-07-21T07:30:10;99257.34;;;22.56;68.90
16431;BME280;8325;49.284;7.238;2022-07-21T07:34:21;99250.16;;;23.08;67.86
16431;BME280;8325;49.284;7.238;2022-07-21T07:38:33;99247.66;;;23.98;65.00
16431;BME280;8325;49.284;7.238;2022-07-21T07:42:45;99241.94;;;24.28;62.58
16431;BME280;8325;49.284;7.238;2022-07-21T07:46:56;99248.38;;;24.93;61.93
16431;BME280;8325;49.284;7.238;2022-07-21T07:51:09;99244.53;;;25.33;59.45
16431;BME280;8325;49.284;7.238;2022-07-21T07:55:21;99238.97;;;25.39;58.09
16431;BME280;8325;49.284;7.238;2022-07-21T07:59:33;99235.63;;;25.54;59.00
16431;BME280;8325;49.284;7.238;2022-07-21T08:03:44;99236.31;;;26.09;56.25
16431;BME280;8325;49.284;7.238;2022-07-21T08:07:56;99237.94;;;25.13;57.83
16431;BME280;8325;49.284;7.238;2022-07-21T08:12:08;99251.25;;;24.64;60.28
16431;BME280;8325;49.284;7.238;2022-07-21T08:16:21;99236.16;;;24.75;59.48
16431;BME280;8325;49.284;7.238;2022-07-21T08:20:33;99252.22;;;25.02;58.41
16431;BME280;8325;49.284;7.238;2022-07-21T08:24:45;99261.00;;;24.53;59.09
16431;BME280;8325;49.284;7.238;2022-07-21T08:28:57;99265.91;;;24.23;58.91
16431;BME280;8325;49.284;7.238;2022-07-21T08:33:09;99265.50;;;24.70;58.56
16431;BME280;8325;49.284;7.238;2022-07-21T08:37:20;99266.94;;;25.04;57.57
16431;BME280;8325;49.284;7.238;2022-07-21T08:41:33;99269.25;;;25.18;56.21
16431;BME280;8325;49.284;7.238;2022-07-21T08:45:46;99263.72;;;25.57;55.88
16431;BME280;8325;49.284;7.238;2022-07-21T08:49:59;99257.38;;;25.36;54.51
16431;BME280;8325;49.284;7.238;2022-07-21T08:54:10;99266.34;;;24.97;55.78
16431;BME280;8325;49.284;7.238;2022-07-21T08:58:22;99266.38;;;25.24;54.78
16431;BME280;8325;49.284;7.238;2022-07-21T09:02:35;99261.22;;;25.18;53.39
16431;BME280;8325;49.284;7.238;2022-07-21T09:07:01;99263.47;;;25.04;53.55
16431;BME280;8325;49.284;7.238;2022-07-21T09:11:15;99255.94;;;25.01;52.34
16431;BME280;8325;49.284;7.238;2022-07-21T09:15:28;99254.84;;;25.19;53.61
16431;BME280;8325;49.284;7.238;2022-07-21T09:19:44;99250.59;;;25.23;53.18
16431;BME280;8325;49.284;7.238;2022-07-21T09:24:32;99251.28;;;25.40;53.29
16431;BME280;8325;49.284;7.238;2022-07-21T09:28:49;99256.28;;;25.59;53.05
16431;BME280;8325;49.284;7.238;2022-07-21T09:33:18;99255.94;;;25.82;50.94
16431;BME280;8325;49.284;7.238;2022-07-21T09:37:30;99255.75;;;25.62;51.95
16431;BME280;8325;49.284;7.238;2022-07-21T09:41:42;99244.63;;;25.75;52.08
16431;BME280;8325;49.284;7.238;2022-07-21T09:45:55;99254.75;;;25.68;51.33
16431;BME280;8325;49.284;7.238;2022-07-21T09:50:08;99254.06;;;25.83;51.40
16431;BME280;8325;49.284;7.238;2022-07-21T09:54:42;99253.13;;;26.04;49.88
16431;BME280;8325;49.284;7.238;2022-07-21T09:59:01;99252.53;;;26.39;48.95
16431;BME280;8325;49.284;7.238;2022-07-21T10:03:13;99253.69;;;26.49;48.77
16431;BME280;8325;49.284;7.238;2022-07-21T10:07:28;99261.00;;;26.69;46.98
16431;BME280;8325;49.284;7.238;2022-07-21T10:11:41;99259.59;;;26.56;46.32
16431;BME280;8325;49.284;7.238;2022-07-21T10:15:53;99262.66;;;26.27;47.30
16431;BME280;8325;49.284;7.238;2022-07-21T10:20:13;99256.81;;;26.40;47.71
16431;BME280;8325;49.284;7.238;2022-07-21T10:24:28;99249.78;;;26.29;48.25
16431;BME280;8325;49.284;7.238;2022-07-21T10:28:43;99249.19;;;26.12;48.21
16431;BME280;8325;49.284;7.238;2022-07-21T10:32:54;99243.78;;;26.07;48.33
16431;BME280;8325;49.284;7.238;2022-07-21T10:37:06;99236.97;;;26.31;48.28
16431;BME280;8325;49.284;7.238;2022-07-21T10:41:36;99236.47;;;26.45;48.37
16431;BME280;8325;49.284;7.238;2022-07-21T10:45:48;99244.09;;;26.63;46.29
16431;BME280;8325;49.284;7.238;2022-07-21T10:50:01;99245.19;;;26.72;45.38
16431;BME280;8325;49.284;7.238;2022-07-21T10:54:20;99236.28;;;26.56;47.66
16431;BME280;8325;49.284;7.238;2022-07-21T10:58:39;99248.22;;;26.33;46.38
16431;BME280;8325;49.284;7.238;2022-07-21T11:03:02;99242.22;;;26.16;46.45
16431;BME280;8325;49.284;7.238;2022-07-21T11:07:14;99243.25;;;26.05;46.92
16431;BME280;8325;49.284;7.238;2022-07-21T11:11:27;99231.59;;;26.31;47.99
16431;BME280;8325;49.284;7.238;2022-07-21T11:15:48;99224.25;;;26.59;47.36
16431;BME280;8325;49.284;7.238;2022-07-21T11:19:59;99229.72;;;26.95;47.35
16431;BME280;8325;49.284;7.238;2022-07-21T11:24:18;99221.69;;;27.05;45.17
16431;BME280;8325;49.284;7.238;2022-07-21T11:28:30;99209.94;;;27.21;44.30
16431;BME280;8325;49.284;7.238;2022-07-21T11:32:46;99206.72;;;27.14;44.90
16431;BME280;8325;49.284;7.238;2022-07-21T11:37:01;99204.59;;;27.47;45.37
16431;BME280;8325;49.284;7.238;2022-07-21T11:41:35;99206.97;;;27.74;44.25
16431;BME280;8325;49.284;7.238;2022-07-21T11:45:53;99197.06;;;27.69;44.39
16431;BME280;8325;49.284;7.238;2022-07-21T11:50:07;99199.75;;;27.23;44.92
16431;BME280;8325;49.284;7.238;2022-07-21T11:58:38;99203.47;;;27.02;44.40
16431;BME280;8325;49.284;7.238;2022-07-21T12:03:05;99183.66;;;27.18;44.24
16431;BME280;8325;49.284;7.238;2022-07-21T12:11:40;99189.03;;;27.23;44.23
16431;BME280;8325;49.284;7.238;2022-07-21T12:15:52;99180.19;;;27.48;43.86
16431;BME280;8325;49.284;7.238;2022-07-21T12:20:05;99186.34;;;27.80;43.35
16431;BME280;8325;49.284;7.238;2022-07-21T12:24:19;99184.19;;;27.46;41.83
16431;BME280;8325;49.284;7.238;2022-07-21T12:28:45;99190.38;;;27.41;42.98
16431;BME280;8325;49.284;7.238;2022-07-21T12:37:14;99186.84;;;27.10;43.66
16431;BME280;8325;49.284;7.238;2022-07-21T12:41:45;99190.63;;;27.24;43.58
16431;BME280;8325;49.284;7.238;2022-07-21T12:50:14;99179.84;;;28.01;42.16
16431;BME280;8325;49.284;7.238;2022-07-21T12:54:34;99171.97;;;28.25;42.00
16431;BME280;8325;49.284;7.238;2022-07-21T12:58:46;99172.22;;;28.29;41.62
16431;BME280;8325;49.284;7.238;2022-07-21T13:02:58;99166.91;;;28.13;42.34
16431;BME280;8325;49.284;7.238;2022-07-21T13:07:10;99168.31;;;27.95;42.54
16431;BME280;8325;49.284;7.238;2022-07-21T13:11:21;99165.84;;;28.14;42.44
16431;BME280;8325;49.284;7.238;2022-07-21T13:15:33;99168.56;;;28.09;41.73
16431;BME280;8325;49.284;7.238;2022-07-21T13:19:45;99164.72;;;28.26;41.16
16431;BME280;8325;49.284;7.238;2022-07-21T13:23:57;99165.31;;;28.07;41.03
16431;BME280;8325;49.284;7.238;2022-07-21T13:28:09;99170.16;;;28.10;41.72
16431;BME280;8325;49.284;7.238;2022-07-21T13:32:21;99165.28;;;28.22;41.09
16431;BME280;8325;49.284;7.238;2022-07-21T13:36:34;99159.59;;;28.29;41.62
16431;BME280;8325;49.284;7.238;2022-07-21T13:40:52;99160.81;;;28.62;41.27
16431;BME280;8325;49.284;7.238;2022-07-21T13:45:24;99159.34;;;28.80;41.28
16431;BME280;8325;49.284;7.238;2022-07-21T13:49:36;99156.31;;;28.92;40.08
16431;BME280;8325;49.284;7.238;2022-07-21T13:53:50;99146.63;;;28.91;39.16
16431;BME280;8325;49.284;7.238;2022-07-21T13:58:02;99150.94;;;28.92;37.54
16431;BME280;8325;49.284;7.238;2022-07-21T14:02:14;99149.47;;;28.76;38.70
16431;BME280;8325;49.284;7.238;2022-07-21T14:06:25;99146.06;;;28.94;38.87
16431;BME280;8325;49.284;7.238;2022-07-21T14:10:37;99137.19;;;29.04;39.31
16431;BME280;8325;49.284;7.238;2022-07-21T14:14:49;99135.72;;;29.17;38.74
16431;BME280;8325;49.284;7.238;2022-07-21T14:19:00;99148.38;;;28.72;39.42
16431;BME280;8325;49.284;7.238;2022-07-21T14:23:12;99152.78;;;28.57;40.11
16431;BME280;8325;49.284;7.238;2022-07-21T14:27:24;99157.91;;;28.54;38.86
16431;BME280;8325;49.284;7.238;2022-07-21T14:31:35;99148.94;;;28.68;38.09
16431;BME280;8325;49.284;7.238;2022-07-21T14:35:47;99142.94;;;28.82;39.07
16431;BME280;8325;49.284;7.238;2022-07-21T14:39:58;99149.00;;;28.58;39.28
16431;BME280;8325;49.284;7.238;2022-07-21T14:44:12;99144.13;;;28.65;39.26
16431;BME280;8325;49.284;7.238;2022-07-21T14:48:23;99135.97;;;28.81;39.61
16431;BME280;8325;49.284;7.238;2022-07-21T14:52:35;99139.66;;;28.90;38.82
16431;BME280;8325;49.284;7.238;2022-07-21T14:56:47;99134.53;;;28.94;38.64
16431;BME280;8325;49.284;7.238;2022-07-21T15:01:18;99140.31;;;28.77;39.01
16431;BME280;8325;49.284;7.238;2022-07-21T15:05:30;99134.69;;;28.13;40.12
16431;BME280;8325;49.284;7.238;2022-07-21T15:09:42;99133.16;;;27.97;40.91
16431;BME280;8325;49.284;7.238;2022-07-21T15:13:53;99139.06;;;27.89;41.24
16431;BME280;8325;49.284;7.238;2022-07-21T15:18:06;99140.97;;;27.88;41.27
16431;BME280;8325;49.284;7.238;2022-07-21T15:22:19;99135.53;;;28.04;41.08
16431;BME280;8325;49.284;7.238;2022-07-21T15:26:30;99126.06;;;28.27;40.94
16431;BME280;8325;49.284;7.238;2022-07-21T15:30:42;99128.69;;;28.42;39.96
16431;BME280;8325;49.284;7.238;2022-07-21T15:34:53;99131.44;;;28.27;39.38
16431;BME280;8325;49.284;7.238;2022-07-21T15:39:05;99119.53;;;28.43;39.17
16431;BME280;8325;49.284;7.238;2022-07-21T15:43:17;99127.59;;;28.38;39.21
16431;BME280;8325;49.284;7.238;2022-07-21T15:47:29;99119.72;;;28.57;38.59
16431;BME280;8325;49.284;7.238;2022-07-21T15:51:41;99110.75;;;28.72;38.66
16431;BME280;8325;49.284;7.238;2022-07-21T15:55:52;99117.53;;;28.64;38.30
16431;BME280;8325;49.284;7.238;2022-07-21T16:00:08;99106.19;;;28.72;38.15
16431;BME280;8325;49.284;7.238;2022-07-21T16:04:23;99113.75;;;28.65;38.31
16431;BME280;8325;49.284;7.238;2022-07-21T16:08:36;99100.09;;;28.61;38.13
16431;BME280;8325;49.284;7.238;2022-07-21T16:12:49;99094.97;;;28.60;38.27
16431;BME280;8325;49.284;7.238;2022-07-21T16:17:02;99089.88;;;28.63;37.77
16431;BME280;8325;49.284;7.238;2022-07-21T16:21:16;99097.22;;;28.48;38.18
16431;BME280;8325;49.284;7.238;2022-07-21T16:25:28;99098.59;;;28.45;38.35
16431;BME280;8325;49.284;7.238;2022-07-21T16:29:41;99098.03;;;28.38;38.25
16431;BME280;8325;49.284;7.238;2022-07-21T16:33:52;99106.16;;;28.28;37.16
16431;BME280;8325;49.284;7.238;2022-07-21T16:38:04;99103.69;;;28.41;37.65
16431;BME280;8325;49.284;7.238;2022-07-21T16:42:17;99101.28;;;28.35;37.72
16431;BME280;8325;49.284;7.238;2022-07-21T16:46:28;99091.41;;;28.20;38.13
16431;BME280;8325;49.284;7.238;2022-07-21T16:50:40;99089.56;;;28.15;38.28
16431;BME280;8325;49.284;7.238;2022-07-21T16:54:52;99097.94;;;28.09;38.69
16431;BME280;8325;49.284;7.238;2022-07-21T16:59:03;99087.22;;;27.98;38.74
16431;BME280;8325;49.284;7.238;2022-07-21T17:03:15;99087.53;;;27.76;38.02
16431;BME280;8325;49.284;7.238;2022-07-21T17:07:27;99090.03;;;27.63;38.38
16431;BME280;8325;49.284;7.238;2022-07-21T17:11:38;99089.25;;;27.42;39.83
16431;BME280;8325;49.284;7.238;2022-07-21T17:15:50;99090.06;;;27.42;39.65
16431;BME280;8325;49.284;7.238;2022-07-21T17:20:04;99097.31;;;27.42;40.25
16431;BME280;8325;49.284;7.238;2022-07-21T17:24:17;99091.94;;;27.47;39.45
16431;BME280;8325;49.284;7.238;2022-07-21T17:28:28;99090.63;;;27.34;41.12
16431;BME280;8325;49.284;7.238;2022-07-21T17:32:40;99094.38;;;27.28;40.50
16431;BME280;8325;49.284;7.238;2022-07-21T17:36:52;99083.66;;;27.28;40.57
16431;BME280;8325;49.284;7.238;2022-07-21T17:41:03;99084.69;;;27.12;41.36
16431;BME280;8325;49.284;7.238;2022-07-21T17:45:15;99084.44;;;27.08;40.81
16431;BME280;8325;49.284;7.238;2022-07-21T17:49:27;99085.78;;;26.85;41.17
16431;BME280;8325;49.284;7.238;2022-07-21T17:53:39;99081.22;;;26.85;41.34
16431;BME280;8325;49.284;7.238;2022-07-21T17:57:55;99084.69;;;26.81;41.63
16431;BME280;8325;49.284;7.238;2022-07-21T18:02:25;99089.78;;;26.62;42.06
16431;BME280;8325;49.284;7.238;2022-07-21T18:06:37;99088.63;;;26.48;42.69
16431;BME280;8325;49.284;7.238;2022-07-21T18:10:48;99090.78;;;26.40;42.84
16431;BME280;8325;49.284;7.238;2022-07-21T18:15:00;99098.81;;;26.40;43.10
16431;BME280;8325;49.284;7.238;2022-07-21T18:19:11;99098.50;;;26.32;43.92
16431;BME280;8325;49.284;7.238;2022-07-21T18:23:23;99098.50;;;26.22;44.43
16431;BME280;8325;49.284;7.238;2022-07-21T18:27:35;99094.13;;;26.00;44.83
16431;BME280;8325;49.284;7.238;2022-07-21T18:31:46;99093.31;;;25.94;45.48
16431;BME280;8325;49.284;7.238;2022-07-21T18:35:58;99097.03;;;25.88;45.50
16431;BME280;8325;49.284;7.238;2022-07-21T18:40:10;99097.50;;;25.80;45.95
16431;BME280;8325;49.284;7.238;2022-07-21T18:44:22;99099.63;;;25.78;46.71
16431;BME280;8325;49.284;7.238;2022-07-21T18:48:33;99099.53;;;25.63;47.16
16431;BME280;8325;49.284;7.238;2022-07-21T18:53:01;99097.34;;;25.49;47.86
16431;BME280;8325;49.284;7.238;2022-07-21T18:57:12;99093.50;;;25.35;48.48
16431;BME280;8325;49.284;7.238;2022-07-21T19:01:24;99094.88;;;25.11;49.11
16431;BME280;8325;49.284;7.238;2022-07-21T19:05:36;99098.50;;;24.94;49.40
16431;BME280;8325;49.284;7.238;2022-07-21T19:09:47;99090.38;;;24.84;48.77
16431;BME280;8325;49.284;7.238;2022-07-21T19:13:59;99093.94;;;24.63;49.26
16431;BME280;8325;49.284;7.238;2022-07-21T19:18:10;99102.53;;;24.43;50.03
16431;BME280;8325;49.284;7.238;2022-07-21T19:22:22;99101.28;;;24.28;50.08
16431;BME280;8325;49.284;7.238;2022-07-21T19:26:34;99109.75;;;24.20;50.40
16431;BME280;8325;49.284;7.238;2022-07-21T19:30:45;99108.50;;;24.06;51.14
16431;BME280;8325;49.284;7.238;2022-07-21T19:34:57;99118.31;;;24.00;51.93
16431;BME280;8325;49.284;7.238;2022-07-21T19:39:08;99125.03;;;23.86;53.25
16431;BME280;8325;49.284;7.238;2022-07-21T19:43:20;99128.06;;;23.73;53.33
16431;BME280;8325;49.284;7.238;2022-07-21T19:47:32;99131.59;;;23.61;53.83
16431;BME280;8325;49.284;7.238;2022-07-21T19:51:44;99139.72;;;23.50;55.14
16431;BME280;8325;49.284;7.238;2022-07-21T19:55:56;99143.53;;;23.37;55.67
16431;BME280;8325;49.284;7.238;2022-07-21T20:00:10;99146.44;;;23.18;56.21
16431;BME280;8325;49.284;7.238;2022-07-21T20:04:23;99146.19;;;23.03;57.33
16431;BME280;8325;49.284;7.238;2022-07-21T20:08:34;99145.31;;;22.86;58.69
16431;BME280;8325;49.284;7.238;2022-07-21T20:12:46;99140.28;;;22.72;59.30
16431;BME280;8325;49.284;7.238;2022-07-21T20:16:57;99150.41;;;22.59;59.92
16431;BME280;8325;49.284;7.238;2022-07-21T20:21:29;99160.41;;;22.40;60.20
16431;BME280;8325;49.284;7.238;2022-07-21T20:25:40;99158.84;;;22.27;60.78
16431;BME280;8325;49.284;7.238;2022-07-21T20:30:12;99163.34;;;22.15;61.76
16431;BME280;8325;49.284;7.238;2022-07-21T20:34:30;99166.72;;;21.98;61.85
16431;BME280;8325;49.284;7.238;2022-07-21T20:38:42;99159.91;;;21.91;62.08
16431;BME280;8325;49.284;7.238;2022-07-21T20:42:54;99169.84;;;21.83;62.65
16431;BME280;8325;49.284;7.238;2022-07-21T20:47:06;99171.72;;;21.83;62.43
16431;BME280;8325;49.284;7.238;2022-07-21T20:51:18;99166.59;;;21.81;62.72
16431;BME280;8325;49.284;7.238;2022-07-21T20:55:30;99167.19;;;21.72;62.60
16431;BME280;8325;49.284;7.238;2022-07-21T20:59:57;99165.31;;;21.49;63.49
16431;BME280;8325;49.284;7.238;2022-07-21T21:04:09;99163.03;;;21.52;63.18
16431;BME280;8325;49.284;7.238;2022-07-21T21:08:23;99174.59;;;21.46;63.55
16431;BME280;8325;49.284;7.238;2022-07-21T21:12:35;99162.50;;;21.32;63.97
16431;BME280;8325;49.284;7.238;2022-07-21T21:16:47;99171.34;;;21.14;64.79
16431;BME280;8325;49.284;7.238;2022-07-21T21:20:59;99166.97;;;21.08;65.15
16431;BME280;8325;49.284;7.238;2022-07-21T21:25:10;99169.59;;;21.08;65.42
16431;BME280;8325;49.284;7.238;2022-07-21T21:29:22;99173.75;;;21.04;64.95
